Lebanon, NH

10:12 PM EST on November 23, 2014 (GMT -0500)
Daisy Hill | Change Station
CLOSE
Current Station
Personal Weather Station
Location: Lebanon, NH
Elevation: 1038 ft
Nearby Weather Stations

Elev 1038 ft 43.61 °N, 72.24 °W | Updated 1 second ago

Overcast
Overcast
46.7 °F
Feels Like 47 °F
N
2.0
Wind Variable Wind from ESE
Gusts 4.0 mph

Today
High -- | Low -- °F
--% Chance of Precip.
Yesterday
High -- | Low -- °F
Precip. -- in
6:53 AM 4:17 PM
Waxing Crescent, 3% visible
Pressure 30.08 in
Visibility 8.0 miles
Clouds Overcast 8000 ft
Windchill 47 °F
Dew Point 35 °F
Humidity 64%
Rainfall 0.00 in
Snow Depth Not available.
UV 0 out of 12
Pollen .10 out of 12
Air Quality Not available.
Flu Activity Not available.
METAR KLEB 240253Z AUTO 00000KT 8SM OVC080 04/03 A3006 RMK AO2 SLP184 T00440028 58007

More Conditions Fewer Conditions

Pressure 30.08 in
Visibility 8.0 miles
Clouds Overcast 8000 ft
Windchill 47 °F
Dew Point 35 °F
Humidity 64%
Rainfall 0.00 in
Snow Depth Not available.
UV 0 out of 12
Pollen .10 out of 12
Air Quality Not available.
Flu Activity Not available.
METAR KLEB 240253Z AUTO 00000KT 8SM OVC080 04/03 A3006 RMK AO2 SLP184 T00440028 58007

More Conditions Fewer Conditions

10-Day Weather Forecast

Almanac

Astronomy

Nov. 23, 2014 Rise Set
Actual Time
Civil Twilight
Nautical Twilight
Astronomical Twilight
Moon
Length of Visible Light
Length of Day
Tomorrow will be .
, % of the Moon is Illuminated

Today's Extremes

State Highs State Lows

Community

WunderPhotos

Upload Photos

1,773,257 photos uploaded!

WunderBlogs® & News

Nearby

Air Quality

  Air Quality AQ Index Pollutant
Not available.

Snow Depth

Station Depth Elevation

Earthquake Activity

City Distance Mag. Time & Date
Minimum magnitude displayed is 2.5.

Coastal Water Temperatures

Place Temperature

Nearby Weather Stations